Time;durP1;ratioP1;P1;durP2;ratioP2;P2;SDS_P1;SDS_P2;PMS_P1;PMS_P2;Temp;Humidity;BMP_temperature;BMP_pressure;BME280_temperature;BME280_humidity;BME280_pressure;Samples;Min_cycle;Max_cycle;Signal;HPM_P1;HPM_P2
2024/01/09 00:01:29;;;;;;;;;;;-0.60;99.90;;;;;;5049757;28;19925;-60
2024/01/09 00:03:56;;;;;;;;;;;-0.60;99.90;;;;;;5045755;28;19925;-61
2024/01/09 00:06:23;;;;;;;;;;;-0.60;99.90;;;;;;5049382;28;19974;-63
2024/01/09 00:08:50;;;;;;;;;;;-0.60;99.90;;;;;;5046572;28;19961;-62
2024/01/09 00:11:17;;;;;;;;;;;-0.60;99.90;;;;;;5044029;28;20402;-64
2024/01/09 00:13:44;;;;;;;;;;;-0.70;99.90;;;;;;5041070;28;19932;-61
2024/01/09 00:16:11;;;;;;;;;;;-0.60;99.90;;;;;;5045902;28;19964;-60
2024/01/09 00:18:38;;;;;;;;;;;-0.60;99.90;;;;;;5047101;28;19925;-61
2024/01/09 00:21:04;;;;;;;;;;;-0.60;99.90;;;;;;5032032;28;19969;-64
2024/01/09 00:23:31;;;;;;;;;;;-0.60;99.90;;;;;;5044365;28;20027;-62
2024/01/09 00:25:58;;;;;;;;;;;-0.50;99.90;;;;;;5047064;28;19929;-60
2024/01/09 00:28:26;;;;;;;;;;;-0.50;99.90;;;;;;5047247;28;19925;-67
2024/01/09 00:30:52;;;;;;;;;;;-0.50;99.90;;;;;;5048689;28;19928;-62
2024/01/09 00:33:19;;;;;;;;;;;-0.50;99.90;;;;;;5052285;28;19936;-66
2024/01/09 00:35:46;;;;;;;;;;;-0.60;99.90;;;;;;5048543;28;19935;-63
2024/01/09 00:38:13;;;;;;;;;;;-0.50;99.90;;;;;;5050092;28;20575;-58
2024/01/09 00:40:40;;;;;;;;;;;-0.50;99.90;;;;;;5052757;28;19932;-63
2024/01/09 00:43:07;;;;;;;;;;;-0.60;99.90;;;;;;5054529;28;19929;-60
2024/01/09 00:45:34;;;;;;;;;;;-0.50;99.90;;;;;;5049786;28;20021;-61
2024/01/09 00:48:05;;;;;;;;;;;-0.50;99.90;;;;;;5051296;28;19939;-59
2024/01/09 00:50:33;;;;;;;;;;;-0.50;99.90;;;;;;5046424;28;19972;-59
2024/01/09 00:53:00;;;;;;;;;;;-0.50;99.90;;;;;;5045575;28;19929;-59
2024/01/09 00:55:27;;;;;;;;;;;-0.50;99.90;;;;;;5048310;28;19925;-61
2024/01/09 00:57:54;;;;;;;;;;;-0.50;99.90;;;;;;5051686;28;19929;-60
2024/01/09 01:00:21;;;;;;;;;;;-0.50;99.90;;;;;;5055305;28;20353;-65
2024/01/09 01:02:48;;;;;;;;;;;-0.50;99.90;;;;;;5049704;28;19932;-59
2024/01/09 01:05:15;;;;;;;;;;;-0.50;99.90;;;;;;5052290;28;19932;-60
2024/01/09 01:07:42;;;;;;;;;;;-0.50;99.90;;;;;;5054893;28;19960;-67
2024/01/09 01:10:12;;;;;;;;;;;-0.40;99.90;;;;;;5049217;28;19982;-67
2024/01/09 01:12:41;;;;;;;;;;;-0.40;99.90;;;;;;5046407;28;19932;-62
2024/01/09 01:15:08;;;;;;;;;;;-0.40;99.90;;;;;;5043881;28;19929;-69
2024/01/09 01:17:35;;;;;;;;;;;-0.40;99.90;;;;;;5046368;28;19936;-60
2024/01/09 01:20:02;;;;;;;;;;;-0.40;99.90;;;;;;5029311;28;20270;-64
2024/01/09 01:22:29;;;;;;;;;;;-0.30;99.90;;;;;;5027402;28;19925;-69
2024/01/09 01:24:56;;;;;;;;;;;-0.40;99.90;;;;;;5029605;28;19929;-60
2024/01/09 01:27:22;;;;;;;;;;;-0.40;99.90;;;;;;5028485;28;19925;-63
2024/01/09 01:29:49;;;;;;;;;;;-0.30;99.90;;;;;;5036092;28;19985;-59
2024/01/09 01:32:16;;;;;;;;;;;-0.30;99.90;;;;;;5033727;28;19986;-71
2024/01/09 01:34:43;;;;;;;;;;;-0.30;99.90;;;;;;5035176;28;20385;-63
2024/01/09 01:37:10;;;;;;;;;;;-0.30;99.90;;;;;;5028428;28;20339;-60
2024/01/09 01:39:37;;;;;;;;;;;-0.30;99.90;;;;;;5030877;28;19925;-61
2024/01/09 01:42:04;;;;;;;;;;;-0.30;99.90;;;;;;5030481;28;20400;-65
2024/01/09 01:44:31;;;;;;;;;;;-0.30;99.90;;;;;;5036986;28;19929;-67
2024/01/09 01:46:58;;;;;;;;;;;-0.20;99.90;;;;;;5029481;28;20410;-60
2024/01/09 01:49:25;;;;;;;;;;;-0.20;99.90;;;;;;5037108;28;20023;-65
2024/01/09 01:51:52;;;;;;;;;;;-0.20;99.90;;;;;;5030752;28;19929;-58
2024/01/09 01:54:19;;;;;;;;;;;-0.20;99.90;;;;;;5032560;28;19925;-63
2024/01/09 01:56:46;;;;;;;;;;;-0.20;99.90;;;;;;5013413;28;19928;-60
2024/01/09 01:59:15;;;;;;;;;;;-0.20;99.90;;;;;;5031641;28;20312;-66
2024/01/09 02:01:44;;;;;;;;;;;-0.20;99.90;;;;;;5030415;28;20030;-58
2024/01/09 02:04:12;;;;;;;;;;;-0.20;99.90;;;;;;5039580;28;21503;-60
2024/01/09 02:06:39;;;;;;;;;;;-0.20;99.90;;;;;;5029177;28;20405;-59
2024/01/09 02:09:06;;;;;;;;;;;-0.20;99.90;;;;;;5035894;28;20252;-59
2024/01/09 02:11:33;;;;;;;;;;;-0.20;99.90;;;;;;5032761;28;21420;-65
2024/01/09 02:14:00;;;;;;;;;;;-0.20;99.90;;;;;;5032867;28;19990;-65
2024/01/09 02:16:27;;;;;;;;;;;-0.20;99.90;;;;;;5027373;28;19925;-62
2024/01/09 02:18:53;;;;;;;;;;;-0.20;99.90;;;;;;5039082;28;20379;-61
2024/01/09 02:21:20;;;;;;;;;;;-0.10;99.90;;;;;;5041158;28;19925;-65
2024/01/09 02:23:48;;;;;;;;;;;-0.10;99.90;;;;;;5037016;28;19929;-61
2024/01/09 02:26:19;;;;;;;;;;;-0.10;99.90;;;;;;5034948;28;19972;-60
2024/01/09 02:29:08;;;;;;;;;;;-0.10;99.90;;;;;;5023811;28;19933;-68
2024/01/09 02:31:35;;;;;;;;;;;-0.10;99.90;;;;;;5033428;28;19925;-61
2024/01/09 02:34:03;;;;;;;;;;;-0.10;99.90;;;;;;5029960;28;19925;-59
2024/01/09 02:36:32;;;;;;;;;;;-0.10;99.90;;;;;;5030389;28;19924;-59
2024/01/09 02:38:59;;;;;;;;;;;-0.10;99.90;;;;;;5038704;28;19979;-62
2024/01/09 02:41:26;;;;;;;;;;;-0.10;99.90;;;;;;5035404;28;19929;-63
2024/01/09 02:43:55;;;;;;;;;;;0.00;99.90;;;;;;5039811;28;19929;-60
2024/01/09 02:46:21;;;;;;;;;;;0.00;99.90;;;;;;5032115;28;20019;-69
2024/01/09 02:48:48;;;;;;;;;;;0.00;99.90;;;;;;5038981;28;20036;-58
2024/01/09 02:51:15;;;;;;;;;;;0.00;99.90;;;;;;5031498;28;20282;-60
2024/01/09 02:53:42;;;;;;;;;;;0.00;99.90;;;;;;5029883;28;20334;-65
2024/01/09 02:56:09;;;;;;;;;;;0.10;99.90;;;;;;5030745;28;20028;-63
2024/01/09 02:58:35;;;;;;;;;;;0.10;99.90;;;;;;5033475;28;19991;-59
2024/01/09 03:01:02;;;;;;;;;;;0.10;99.90;;;;;;5032168;28;21296;-59
2024/01/09 03:03:29;;;;;;;;;;;0.10;99.90;;;;;;5032189;28;19929;-59
2024/01/09 03:05:56;;;;;;;;;;;0.10;99.90;;;;;;5016842;28;20420;-60
2024/01/09 03:08:23;;;;;;;;;;;0.10;99.90;;;;;;5033664;28;19929;-59
2024/01/09 03:10:50;;;;;;;;;;;0.20;99.90;;;;;;5036495;28;19929;-63
2024/01/09 03:13:17;;;;;;;;;;;0.10;99.90;;;;;;5033201;28;19936;-63
2024/01/09 03:15:44;;;;;;;;;;;0.20;99.90;;;;;;5026750;28;20290;-60
2024/01/09 03:18:11;;;;;;;;;;;0.20;99.90;;;;;;5051971;28;20060;-59
2024/01/09 03:20:38;;;;;;;;;;;0.20;99.90;;;;;;5049194;28;19939;-61
2024/01/09 03:23:05;;;;;;;;;;;0.20;99.90;;;;;;5054045;28;19925;-65
2024/01/09 03:25:32;;;;;;;;;;;0.20;99.90;;;;;;5051000;28;20371;-58
2024/01/09 03:27:58;;;;;;;;;;;0.20;99.90;;;;;;5048584;28;20006;-72
2024/01/09 03:30:25;;;;;;;;;;;0.20;99.90;;;;;;5042610;28;20590;-60
2024/01/09 03:32:52;;;;;;;;;;;0.20;99.90;;;;;;5044593;28;19936;-61
2024/01/09 03:35:19;;;;;;;;;;;0.20;99.90;;;;;;5050081;28;19929;-61
2024/01/09 03:37:46;;;;;;;;;;;0.10;99.90;;;;;;5053070;28;19931;-60
2024/01/09 03:40:13;;;;;;;;;;;0.20;99.90;;;;;;5059166;28;19925;-64
2024/01/09 03:42:40;;;;;;;;;;;0.20;99.90;;;;;;5053591;28;19955;-62
2024/01/09 03:45:07;;;;;;;;;;;0.20;99.90;;;;;;5052630;28;19925;-63
2024/01/09 03:47:33;;;;;;;;;;;0.20;99.90;;;;;;5046811;28;19929;-61
2024/01/09 03:50:00;;;;;;;;;;;0.20;99.90;;;;;;5046306;28;20409;-67
2024/01/09 03:52:27;;;;;;;;;;;0.20;99.90;;;;;;5052989;28;19940;-64
2024/01/09 03:54:54;;;;;;;;;;;0.20;99.90;;;;;;5034642;28;19925;-64
2024/01/09 03:57:21;;;;;;;;;;;0.20;99.90;;;;;;5051106;28;19924;-63
2024/01/09 03:59:48;;;;;;;;;;;0.20;99.90;;;;;;5053499;28;19932;-60
2024/01/09 04:02:15;;;;;;;;;;;0.20;99.90;;;;;;5049866;28;19925;-59
2024/01/09 04:04:42;;;;;;;;;;;0.30;99.90;;;;;;5050106;28;19925;-60
2024/01/09 04:07:08;;;;;;;;;;;0.20;99.90;;;;;;5048702;28;19960;-63
2024/01/09 04:09:36;;;;;;;;;;;0.30;99.90;;;;;;5055389;28;19930;-59
2024/01/09 04:12:03;;;;;;;;;;;0.20;99.90;;;;;;5051167;28;20367;-59
2024/01/09 04:14:30;;;;;;;;;;;0.30;99.90;;;;;;5055126;28;19975;-62
2024/01/09 04:16:59;;;;;;;;;;;0.30;99.90;;;;;;5055848;28;19929;-62
2024/01/09 04:19:26;;;;;;;;;;;0.30;99.90;;;;;;5051870;28;19963;-59
2024/01/09 04:21:53;;;;;;;;;;;0.30;99.90;;;;;;5044102;28;20379;-59
2024/01/09 04:24:20;;;;;;;;;;;0.30;99.90;;;;;;5046368;28;20007;-67
2024/01/09 04:26:46;;;;;;;;;;;0.30;99.90;;;;;;5074661;28;20027;-62
2024/01/09 04:29:13;;;;;;;;;;;0.30;99.90;;;;;;5049029;28;19975;-62
2024/01/09 04:31:40;;;;;;;;;;;0.30;99.90;;;;;;5053752;28;19956;-60
2024/01/09 04:34:07;;;;;;;;;;;0.30;99.90;;;;;;5049057;28;19970;-59
2024/01/09 04:36:35;;;;;;;;;;;0.30;99.90;;;;;;5050950;28;19924;-64
2024/01/09 04:39:02;;;;;;;;;;;0.30;99.90;;;;;;5051931;28;19929;-62
2024/01/09 04:41:28;;;;;;;;;;;0.30;99.90;;;;;;5041855;28;19990;-68
2024/01/09 04:43:55;;;;;;;;;;;0.30;99.90;;;;;;5049704;28;19932;-59
2024/01/09 04:46:22;;;;;;;;;;;0.30;99.90;;;;;;5047248;28;19924;-62
2024/01/09 04:48:49;;;;;;;;;;;0.30;99.90;;;;;;5047890;28;20481;-58
2024/01/09 04:51:16;;;;;;;;;;;0.40;99.90;;;;;;5046328;28;19979;-60
2024/01/09 04:53:43;;;;;;;;;;;0.40;99.90;;;;;;5047599;28;19925;-60
2024/01/09 04:56:09;;;;;;;;;;;0.40;99.90;;;;;;5048301;28;19925;-63
2024/01/09 04:58:36;;;;;;;;;;;0.40;99.90;;;;;;5049041;28;19953;-60
2024/01/09 05:01:03;;;;;;;;;;;0.40;99.90;;;;;;5055315;28;19967;-60
2024/01/09 05:03:30;;;;;;;;;;;0.40;99.90;;;;;;5056239;28;19924;-63
2024/01/09 05:05:57;;;;;;;;;;;0.40;99.90;;;;;;5052552;28;19924;-61
2024/01/09 05:08:24;;;;;;;;;;;0.40;99.90;;;;;;5049270;28;20024;-64
2024/01/09 05:10:51;;;;;;;;;;;0.50;99.90;;;;;;5052590;28;20019;-61
2024/01/09 05:13:18;;;;;;;;;;;0.50;99.90;;;;;;5062690;28;19960;-58
2024/01/09 05:15:44;;;;;;;;;;;0.40;99.90;;;;;;5051667;28;19975;-63
2024/01/09 05:18:11;;;;;;;;;;;0.40;99.90;;;;;;5047877;28;19925;-65
2024/01/09 05:20:38;;;;;;;;;;;0.50;99.90;;;;;;5034589;28;20394;-60
2024/01/09 05:23:05;;;;;;;;;;;0.50;99.90;;;;;;5030739;28;19932;-66
2024/01/09 05:25:32;;;;;;;;;;;0.50;99.90;;;;;;5032413;28;19925;-63
2024/01/09 05:27:59;;;;;;;;;;;0.50;99.90;;;;;;5030954;28;19929;-62
2024/01/09 05:30:26;;;;;;;;;;;0.40;99.90;;;;;;5030708;28;19933;-63
2024/01/09 05:32:53;;;;;;;;;;;0.50;99.90;;;;;;5025728;28;19926;-62
2024/01/09 05:35:20;;;;;;;;;;;0.50;99.90;;;;;;5027628;28;19929;-59
2024/01/09 05:37:47;;;;;;;;;;;0.50;99.90;;;;;;5026182;28;20020;-60
2024/01/09 05:40:13;;;;;;;;;;;0.40;99.90;;;;;;5034573;28;19925;-68
2024/01/09 05:42:40;;;;;;;;;;;0.40;99.90;;;;;;5036786;28;21389;-65
2024/01/09 05:45:07;;;;;;;;;;;0.50;99.90;;;;;;5030292;28;20020;-61
2024/01/09 05:47:34;;;;;;;;;;;0.50;99.90;;;;;;5032158;28;20403;-67
2024/01/09 05:50:01;;;;;;;;;;;0.50;99.90;;;;;;5032216;28;19925;-68
2024/01/09 05:52:28;;;;;;;;;;;0.40;99.90;;;;;;5029976;28;20476;-60
2024/01/09 05:54:55;;;;;;;;;;;0.40;99.90;;;;;;5031837;28;19933;-64
2024/01/09 05:57:22;;;;;;;;;;;0.40;99.90;;;;;;5024337;28;20507;-67
2024/01/09 05:59:48;;;;;;;;;;;0.30;99.90;;;;;;5032133;28;20040;-60
2024/01/09 06:02:15;;;;;;;;;;;0.30;99.90;;;;;;5030559;28;19929;-59
2024/01/09 06:04:42;;;;;;;;;;;0.30;99.90;;;;;;5029627;28;19930;-60
2024/01/09 06:07:09;;;;;;;;;;;0.30;99.90;;;;;;5037632;28;20391;-62
2024/01/09 06:09:36;;;;;;;;;;;0.30;99.90;;;;;;5033209;28;20357;-60
2024/01/09 06:12:03;;;;;;;;;;;0.20;99.90;;;;;;5033293;28;20002;-62
2024/01/09 06:14:29;;;;;;;;;;;0.30;99.90;;;;;;5030584;28;19968;-60
2024/01/09 06:16:56;;;;;;;;;;;0.30;99.90;;;;;;5030178;28;19932;-62
2024/01/09 06:19:23;;;;;;;;;;;0.20;99.90;;;;;;5030740;28;19964;-65
2024/01/09 06:21:50;;;;;;;;;;;0.20;99.90;;;;;;5031171;28;19929;-62
2024/01/09 06:24:20;;;;;;;;;;;0.30;99.90;;;;;;5037911;28;20407;-62
2024/01/09 06:26:46;;;;;;;;;;;0.30;99.90;;;;;;5034653;28;20506;-59
2024/01/09 06:29:13;;;;;;;;;;;0.30;99.90;;;;;;5033173;28;19929;-63
2024/01/09 06:31:40;;;;;;;;;;;0.30;99.90;;;;;;5031529;28;19933;-59
2024/01/09 06:34:07;;;;;;;;;;;0.30;99.90;;;;;;5029386;28;19979;-65
2024/01/09 06:36:34;;;;;;;;;;;0.30;99.90;;;;;;5028772;28;20014;-64
2024/01/09 06:39:01;;;;;;;;;;;0.40;99.90;;;;;;5027117;28;19932;-66
2024/01/09 06:41:29;;;;;;;;;;;0.40;99.90;;;;;;5027455;28;20450;-62
2024/01/09 06:43:55;;;;;;;;;;;0.40;99.90;;;;;;5029604;28;19929;-61
2024/01/09 06:46:22;;;;;;;;;;;0.40;99.90;;;;;;5036639;28;19979;-65
2024/01/09 06:48:49;;;;;;;;;;;0.40;99.90;;;;;;5031018;28;20709;-65
2024/01/09 06:51:16;;;;;;;;;;;0.40;99.90;;;;;;5024214;28;20014;-64
2024/01/09 06:53:43;;;;;;;;;;;0.50;99.90;;;;;;5028787;28;20038;-65
2024/01/09 06:56:10;;;;;;;;;;;0.50;99.90;;;;;;5033851;28;19982;-69
2024/01/09 06:58:36;;;;;;;;;;;0.50;99.90;;;;;;5038897;28;20019;-63
2024/01/09 07:01:04;;;;;;;;;;;0.50;99.90;;;;;;5028670;28;20380;-60
2024/01/09 07:03:31;;;;;;;;;;;0.50;99.90;;;;;;5030068;28;19929;-65
2024/01/09 07:05:57;;;;;;;;;;;0.60;99.90;;;;;;5030223;28;19929;-65
2024/01/09 07:08:24;;;;;;;;;;;0.70;99.90;;;;;;5033887;28;19967;-63
2024/01/09 07:10:51;;;;;;;;;;;0.60;99.90;;;;;;5040522;28;19929;-60
2024/01/09 07:13:18;;;;;;;;;;;0.70;99.90;;;;;;5035580;28;19964;-65
2024/01/09 07:15:45;;;;;;;;;;;0.70;99.90;;;;;;5031787;28;20347;-61
2024/01/09 07:18:11;;;;;;;;;;;0.70;99.90;;;;;;5038311;28;19925;-60
2024/01/09 07:20:39;;;;;;;;;;;0.70;99.90;;;;;;5050739;28;20442;-64
2024/01/09 07:23:05;;;;;;;;;;;0.70;99.90;;;;;;5051276;28;19932;-63
2024/01/09 07:25:45;;;;;;;;;;;0.80;99.90;;;;;;5052041;28;19931;-62
2024/01/09 07:28:12;;;;;;;;;;;0.80;99.90;;;;;;5047763;28;20019;-64
2024/01/09 07:30:38;;;;;;;;;;;0.90;99.90;;;;;;5049055;28;19929;-63
2024/01/09 07:33:05;;;;;;;;;;;0.90;99.90;;;;;;5054488;28;19936;-64
2024/01/09 07:35:37;;;;;;;;;;;0.90;99.90;;;;;;5049716;28;19974;-60
2024/01/09 07:38:04;;;;;;;;;;;0.90;99.90;;;;;;5052964;28;20031;-72
2024/01/09 07:40:31;;;;;;;;;;;0.80;99.90;;;;;;5055173;28;20356;-61
2024/01/09 07:42:59;;;;;;;;;;;0.90;99.90;;;;;;5053502;28;20382;-62
2024/01/09 07:45:28;;;;;;;;;;;0.90;99.90;;;;;;5051206;28;20379;-60
2024/01/09 07:47:56;;;;;;;;;;;0.90;99.90;;;;;;5048955;28;20244;-62
2024/01/09 07:50:23;;;;;;;;;;;1.00;99.90;;;;;;5053206;28;19935;-60
2024/01/09 07:52:50;;;;;;;;;;;1.00;99.90;;;;;;5048482;28;20267;-62
2024/01/09 07:55:17;;;;;;;;;;;1.00;99.90;;;;;;5050623;28;19944;-61
2024/01/09 07:57:43;;;;;;;;;;;1.00;99.90;;;;;;5057194;28;19978;-61
2024/01/09 08:00:10;;;;;;;;;;;1.00;99.90;;;;;;5048548;28;19925;-58
2024/01/09 08:02:37;;;;;;;;;;;1.00;99.90;;;;;;5053241;28;19925;-69
2024/01/09 08:05:04;;;;;;;;;;;1.10;99.90;;;;;;5048216;28;20576;-58
2024/01/09 08:07:31;;;;;;;;;;;1.10;99.90;;;;;;5055488;28;19925;-59
2024/01/09 08:09:58;;;;;;;;;;;1.20;99.90;;;;;;5050656;28;19925;-62
2024/01/09 08:12:25;;;;;;;;;;;1.20;99.90;;;;;;5055196;28;19964;-59
2024/01/09 08:14:53;;;;;;;;;;;1.20;99.90;;;;;;5049281;28;19976;-60
2024/01/09 08:17:20;;;;;;;;;;;1.20;99.90;;;;;;5048690;28;19944;-64
2024/01/09 08:19:47;;;;;;;;;;;1.20;99.90;;;;;;5052009;28;20375;-63
2024/01/09 08:22:13;;;;;;;;;;;1.20;99.90;;;;;;5056717;28;19940;-62
2024/01/09 08:24:40;;;;;;;;;;;1.20;99.90;;;;;;5049213;28;19977;-59
2024/01/09 08:27:07;;;;;;;;;;;1.20;99.90;;;;;;5051641;28;19970;-61
2024/01/09 08:29:34;;;;;;;;;;;1.30;99.90;;;;;;5044991;28;20298;-62
2024/01/09 08:32:01;;;;;;;;;;;1.30;99.90;;;;;;5051152;28;19925;-67
2024/01/09 08:34:28;;;;;;;;;;;1.30;99.90;;;;;;5053919;28;20240;-61
2024/01/09 08:36:55;;;;;;;;;;;1.30;99.90;;;;;;5055503;28;19924;-66
2024/01/09 08:39:22;;;;;;;;;;;1.30;99.90;;;;;;5052123;28;19928;-65
2024/01/09 08:41:49;;;;;;;;;;;1.40;99.90;;;;;;5043704;28;20047;-60
2024/01/09 08:44:17;;;;;;;;;;;1.40;99.90;;;;;;5051640;28;20015;-62
2024/01/09 08:46:44;;;;;;;;;;;1.40;99.90;;;;;;5051901;28;19968;-59
2024/01/09 08:49:12;;;;;;;;;;;1.40;99.90;;;;;;5052608;28;19940;-61
2024/01/09 08:51:39;;;;;;;;;;;1.40;99.90;;;;;;5044002;28;20008;-65
2024/01/09 08:54:07;;;;;;;;;;;1.40;99.90;;;;;;5047609;28;19975;-59
2024/01/09 08:56:34;;;;;;;;;;;1.40;99.90;;;;;;5052275;28;19929;-60
2024/01/09 08:59:01;;;;;;;;;;;1.40;99.90;;;;;;5052933;28;20030;-60
2024/01/09 09:01:29;;;;;;;;;;;1.40;99.90;;;;;;5050793;28;20002;-65
2024/01/09 09:03:56;;;;;;;;;;;1.40;99.90;;;;;;5049697;28;19929;-61
2024/01/09 09:06:23;;;;;;;;;;;1.50;99.90;;;;;;5050656;28;20289;-60
2024/01/09 09:08:50;;;;;;;;;;;1.50;99.90;;;;;;5057184;28;19935;-60
2024/01/09 09:11:17;;;;;;;;;;;1.50;99.90;;;;;;5057689;28;19931;-60
2024/01/09 09:13:44;;;;;;;;;;;1.50;99.90;;;;;;5056461;28;20333;-62
2024/01/09 09:16:11;;;;;;;;;;;1.50;99.90;;;;;;5048431;28;19951;-59
2024/01/09 09:18:37;;;;;;;;;;;1.50;99.90;;;;;;5051965;28;20013;-65
2024/01/09 09:21:05;;;;;;;;;;;1.50;99.90;;;;;;5048177;28;19925;-61
2024/01/09 09:23:32;;;;;;;;;;;1.60;99.90;;;;;;5047305;28;20444;-62
2024/01/09 09:25:59;;;;;;;;;;;1.50;99.90;;;;;;5046174;28;20002;-61
2024/01/09 09:28:26;;;;;;;;;;;1.60;99.90;;;;;;5046361;28;19925;-65
2024/01/09 09:31:02;;;;;;;;;;;1.60;99.90;;;;;;5034050;28;20346;-62
2024/01/09 09:33:31;;;;;;;;;;;1.70;99.90;;;;;;5048555;28;19955;-60
2024/01/09 09:36:02;;;;;;;;;;;1.70;99.90;;;;;;5054524;28;20352;-59
2024/01/09 09:38:30;;;;;;;;;;;1.80;99.90;;;;;;5050314;28;20204;-68
2024/01/09 09:40:57;;;;;;;;;;;1.80;99.90;;;;;;5053159;28;19925;-64
2024/01/09 09:43:25;;;;;;;;;;;1.90;99.90;;;;;;5049539;28;20259;-62
2024/01/09 09:45:54;;;;;;;;;;;1.90;99.90;;;;;;5050232;28;19925;-59
2024/01/09 09:48:23;;;;;;;;;;;1.90;99.90;;;;;;5047614;28;19928;-65
2024/01/09 09:50:51;;;;;;;;;;;1.90;99.90;;;;;;5050641;28;19940;-59
2024/01/09 09:53:20;;;;;;;;;;;1.90;99.90;;;;;;5046670;28;20477;-64
2024/01/09 09:55:47;;;;;;;;;;;1.90;99.90;;;;;;5055986;28;20381;-60
2024/01/09 09:58:14;;;;;;;;;;;1.80;99.90;;;;;;5051976;28;19982;-59
2024/01/09 10:00:41;;;;;;;;;;;1.80;99.90;;;;;;5055027;28;19932;-60
2024/01/09 10:03:08;;;;;;;;;;;1.80;99.90;;;;;;5048387;28;19925;-64
2024/01/09 10:05:38;;;;;;;;;;;1.80;99.90;;;;;;5054788;28;19959;-61
2024/01/09 10:08:06;;;;;;;;;;;1.80;99.90;;;;;;5052795;28;20335;-59
2024/01/09 10:10:33;;;;;;;;;;;1.70;99.90;;;;;;5050229;28;19925;-59
2024/01/09 10:13:00;;;;;;;;;;;1.70;99.90;;;;;;5048629;28;20305;-61
2024/01/09 10:15:27;;;;;;;;;;;1.70;99.90;;;;;;5050953;28;19929;-60
2024/01/09 10:17:54;;;;;;;;;;;1.70;99.90;;;;;;5042814;28;20027;-64
2024/01/09 10:20:21;;;;;;;;;;;1.80;99.90;;;;;;5055086;28;20055;-67
2024/01/09 10:22:51;;;;;;;;;;;1.80;99.90;;;;;;5047588;28;19937;-63
2024/01/09 10:25:18;;;;;;;;;;;1.80;99.90;;;;;;5053245;28;19978;-64
2024/01/09 10:27:46;;;;;;;;;;;1.80;99.90;;;;;;5048776;28;19929;-61
2024/01/09 10:30:13;;;;;;;;;;;1.80;99.90;;;;;;5051104;28;19970;-62
2024/01/09 10:32:40;;;;;;;;;;;1.80;99.90;;;;;;5058428;28;20006;-61
2024/01/09 10:35:11;;;;;;;;;;;1.90;99.90;;;;;;5050198;28;20032;-59
2024/01/09 10:37:38;;;;;;;;;;;1.90;99.90;;;;;;5050931;28;20023;-63
2024/01/09 10:40:05;;;;;;;;;;;1.90;99.90;;;;;;5049170;28;20359;-59
2024/01/09 10:42:43;;;;;;;;;;;1.80;99.90;;;;;;5051270;28;20390;-59
2024/01/09 10:45:10;;;;;;;;;;;1.80;99.90;;;;;;5053833;28;19948;-64
2024/01/09 10:47:37;;;;;;;;;;;1.80;99.90;;;;;;5047023;28;20703;-61
2024/01/09 10:50:04;;;;;;;;;;;1.80;99.90;;;;;;5051489;28;20112;-62
2024/01/09 10:52:32;;;;;;;;;;;1.70;99.90;;;;;;5051830;28;19924;-65
2024/01/09 10:55:00;;;;;;;;;;;1.80;99.90;;;;;;5053200;28;19936;-64
2024/01/09 10:57:28;;;;;;;;;;;1.70;99.90;;;;;;5048835;28;19925;-59
2024/01/09 10:59:56;;;;;;;;;;;1.60;99.90;;;;;;5051210;28;19960;-60
2024/01/09 11:02:25;;;;;;;;;;;1.60;99.90;;;;;;5048779;28;20023;-63
2024/01/09 11:04:52;;;;;;;;;;;1.60;99.90;;;;;;5051665;28;19929;-60
2024/01/09 11:07:20;;;;;;;;;;;1.70;99.90;;;;;;5053189;28;19935;-60
2024/01/09 11:09:48;;;;;;;;;;;1.70;99.90;;;;;;5055602;28;19925;-61
2024/01/09 11:12:20;;;;;;;;;;;1.70;99.90;;;;;;5049902;28;20010;-61
2024/01/09 11:14:52;;;;;;;;;;;1.70;99.90;;;;;;5055646;28;19932;-61
2024/01/09 11:17:20;;;;;;;;;;;1.70;99.90;;;;;;5054139;28;19932;-61
2024/01/09 11:19:47;;;;;;;;;;;1.70;99.90;;;;;;5048961;28;19925;-62
2024/01/09 11:22:15;;;;;;;;;;;1.70;99.90;;;;;;5049007;28;19925;-61
2024/01/09 11:24:46;;;;;;;;;;;1.80;99.90;;;;;;5050679;28;20421;-62
2024/01/09 11:27:18;;;;;;;;;;;1.80;99.90;;;;;;5048895;28;19932;-63
2024/01/09 11:29:52;;;;;;;;;;;1.80;99.90;;;;;;5052212;28;19932;-64
2024/01/09 11:32:30;;;;;;;;;;;1.80;99.90;;;;;;5044960;28;20341;-62
2024/01/09 11:35:10;;;;;;;;;;;1.80;99.90;;;;;;5057166;28;19929;-62
2024/01/09 11:37:39;;;;;;;;;;;1.70;99.90;;;;;;5050720;28;19975;-60
2024/01/09 11:40:06;;;;;;;;;;;1.70;99.90;;;;;;5052060;28;19928;-61
2024/01/09 11:42:34;;;;;;;;;;;1.80;99.90;;;;;;5050073;28;19950;-59
2024/01/09 11:45:01;;;;;;;;;;;1.70;99.90;;;;;;5046850;28;20023;-59
2024/01/09 11:47:29;;;;;;;;;;;1.70;99.90;;;;;;5048213;28;20377;-59
2024/01/09 11:49:58;;;;;;;;;;;1.70;99.90;;;;;;5045094;28;20438;-59
2024/01/09 11:52:28;;;;;;;;;;;1.70;99.90;;;;;;5050927;28;19937;-62
2024/01/09 11:54:55;;;;;;;;;;;1.80;99.90;;;;;;5049280;28;19932;-69
2024/01/09 11:57:23;;;;;;;;;;;1.80;99.90;;;;;;5034012;28;20299;-68
2024/01/09 11:59:50;;;;;;;;;;;1.80;99.90;;;;;;5050926;28;20059;-59
2024/01/09 12:02:18;;;;;;;;;;;1.80;99.90;;;;;;5047291;28;20430;-59
2024/01/09 12:04:45;;;;;;;;;;;1.70;99.90;;;;;;5037636;28;19925;-60
2024/01/09 12:07:12;;;;;;;;;;;1.80;99.90;;;;;;5045985;28;20329;-60
2024/01/09 12:09:39;;;;;;;;;;;1.80;99.90;;;;;;5034864;28;19937;-62
2024/01/09 12:12:07;;;;;;;;;;;1.80;99.90;;;;;;5051051;28;19963;-60
2024/01/09 12:14:34;;;;;;;;;;;1.80;99.90;;;;;;5048245;28;19928;-62
2024/01/09 12:17:16;;;;;;;;;;;1.80;99.90;;;;;;5033892;28;19963;-67
2024/01/09 12:19:44;;;;;;;;;;;1.80;99.90;;;;;;5034853;28;19929;-63
2024/01/09 12:22:11;;;;;;;;;;;1.80;99.90;;;;;;5033627;28;20018;-62
2024/01/09 12:24:38;;;;;;;;;;;1.80;99.90;;;;;;5041226;28;19929;-58
2024/01/09 12:27:05;;;;;;;;;;;1.80;99.90;;;;;;5046943;28;19925;-60
2024/01/09 12:29:32;;;;;;;;;;;1.80;99.90;;;;;;5045417;28;19925;-66
2024/01/09 12:31:59;;;;;;;;;;;1.80;99.90;;;;;;5048069;28;20490;-59
2024/01/09 12:34:27;;;;;;;;;;;1.80;99.90;;;;;;5051323;28;19932;-67
2024/01/09 12:36:54;;;;;;;;;;;1.80;99.90;;;;;;5046673;28;19929;-65
2024/01/09 12:39:22;;;;;;;;;;;1.80;99.90;;;;;;5046802;28;19933;-70
2024/01/09 12:41:53;;;;;;;;;;;1.80;99.90;;;;;;5046736;28;19925;-67
2024/01/09 12:44:21;;;;;;;;;;;1.80;99.90;;;;;;5046753;28;19933;-61
2024/01/09 12:46:47;;;;;;;;;;;1.70;99.90;;;;;;5051681;28;19925;-59
2024/01/09 12:49:15;;;;;;;;;;;1.70;99.90;;;;;;5053220;28;19968;-62
2024/01/09 12:51:42;;;;;;;;;;;1.70;99.90;;;;;;5050087;28;19928;-70
2024/01/09 12:54:13;;;;;;;;;;;1.70;99.90;;;;;;5055294;28;19931;-59
2024/01/09 12:56:41;;;;;;;;;;;1.70;99.90;;;;;;5048843;28;19936;-62
2024/01/09 12:59:09;;;;;;;;;;;1.70;99.90;;;;;;5047498;28;19935;-61
2024/01/09 13:01:36;;;;;;;;;;;1.60;99.90;;;;;;5048100;28;19939;-60
2024/01/09 13:04:03;;;;;;;;;;;1.60;99.90;;;;;;5050123;28;19971;-65
2024/01/09 13:06:30;;;;;;;;;;;1.60;99.90;;;;;;5043662;28;20039;-65
2024/01/09 13:08:57;;;;;;;;;;;1.60;99.90;;;;;;5055256;28;20123;-60
2024/01/09 13:11:24;;;;;;;;;;;1.60;99.90;;;;;;5037897;28;19954;-68
2024/01/09 13:13:53;;;;;;;;;;;1.50;99.90;;;;;;5048551;28;19991;-63
2024/01/09 13:16:20;;;;;;;;;;;1.60;99.90;;;;;;5044749;28;20976;-63
2024/01/09 13:18:46;;;;;;;;;;;1.60;99.90;;;;;;5041841;28;19929;-62
2024/01/09 13:21:14;;;;;;;;;;;1.60;99.90;;;;;;5031929;28;19925;-65
2024/01/09 13:23:41;;;;;;;;;;;1.50;99.90;;;;;;5031467;28;20024;-60
2024/01/09 13:26:17;;;;;;;;;;;1.50;99.90;;;;;;5033468;28;19979;-66
2024/01/09 13:28:44;;;;;;;;;;;1.50;99.90;;;;;;5036883;28;19925;-60
2024/01/09 13:31:14;;;;;;;;;;;1.50;99.90;;;;;;5033592;28;20567;-64
2024/01/09 13:33:41;;;;;;;;;;;1.50;99.90;;;;;;5029653;28;20002;-59
2024/01/09 13:36:08;;;;;;;;;;;1.50;99.90;;;;;;5030867;28;20048;-63
2024/01/09 13:38:35;;;;;;;;;;;1.40;99.90;;;;;;5033083;28;19929;-63
2024/01/09 13:41:04;;;;;;;;;;;1.40;99.90;;;;;;5033281;28;19929;-64
2024/01/09 13:43:31;;;;;;;;;;;1.40;99.90;;;;;;5029815;28;19952;-64
2024/01/09 13:46:01;;;;;;;;;;;1.40;99.90;;;;;;5034854;28;19925;-61
2024/01/09 13:48:28;;;;;;;;;;;1.40;99.90;;;;;;5031058;28;19933;-60
2024/01/09 13:50:55;;;;;;;;;;;1.40;99.90;;;;;;5030154;28;20337;-61
2024/01/09 13:53:25;;;;;;;;;;;1.40;99.90;;;;;;5038085;28;21712;-64
2024/01/09 13:55:56;;;;;;;;;;;1.40;99.90;;;;;;5033590;28;19928;-67
2024/01/09 13:58:23;;;;;;;;;;;1.40;99.90;;;;;;5037448;28;19929;-69
2024/01/09 14:00:50;;;;;;;;;;;1.40;99.90;;;;;;5031789;28;19929;-60
2024/01/09 14:03:18;;;;;;;;;;;1.30;99.90;;;;;;5033094;28;19964;-62
2024/01/09 14:05:45;;;;;;;;;;;1.30;99.90;;;;;;5032093;28;19956;-61
2024/01/09 14:08:12;;;;;;;;;;;1.30;99.90;;;;;;5025103;28;19949;-61
2024/01/09 14:10:39;;;;;;;;;;;1.30;99.90;;;;;;5029890;28;19991;-61
2024/01/09 14:13:06;;;;;;;;;;;1.30;99.90;;;;;;5028502;28;19991;-65
2024/01/09 14:15:37;;;;;;;;;;;1.30;99.90;;;;;;5036744;28;19933;-62
2024/01/09 14:18:04;;;;;;;;;;;1.30;99.90;;;;;;5033292;28;19994;-68
2024/01/09 14:20:31;;;;;;;;;;;1.30;99.90;;;;;;5053308;28;20408;-65
2024/01/09 14:22:58;;;;;;;;;;;1.30;99.90;;;;;;5052952;28;20461;-60
2024/01/09 14:25:28;;;;;;;;;;;1.30;99.90;;;;;;5051072;28;20016;-70
2024/01/09 14:27:55;;;;;;;;;;;1.30;99.90;;;;;;5054750;28;19928;-63
2024/01/09 14:30:22;;;;;;;;;;;1.30;99.90;;;;;;5052109;28;20390;-65